createdAt,value
2023-04-27T00:00:55.005Z,90677.06
2023-04-27T00:03:40.136Z,90675.28
2023-04-27T00:06:25.065Z,90678.56
2023-04-27T00:09:10.071Z,90679.19
2023-04-27T00:11:55.061Z,90674.28
2023-04-27T00:14:40.056Z,90678.13
2023-04-27T00:17:25.128Z,90677.56
2023-04-27T00:20:09.917Z,90681.25
2023-04-27T00:22:54.938Z,90681.97
2023-04-27T00:25:39.875Z,90681.25
2023-04-27T00:28:24.853Z,90675.09
2023-04-27T00:31:09.824Z,90684.91
2023-04-27T00:33:54.744Z,90675.91
2023-04-27T00:36:39.835Z,90677.91
2023-04-27T00:39:24.783Z,90677.81
2023-04-27T00:42:09.854Z,90673.75
2023-04-27T00:44:54.724Z,90667.31
2023-04-27T00:47:39.835Z,90665.28
2023-04-27T00:50:24.815Z,90662.09
2023-04-27T00:53:09.686Z,90666.84
2023-04-27T00:55:54.868Z,90662.63
2023-04-27T00:58:39.901Z,90669.38
2023-04-27T01:01:25.118Z,90662.69
2023-04-27T01:04:10.323Z,90671.66
2023-04-27T01:06:55.685Z,90668.06
2023-04-27T01:09:41.118Z,90677.09
2023-04-27T01:12:26.126Z,90669.09
2023-04-27T01:15:11.076Z,90675.94
2023-04-27T01:17:55.961Z,90672.22
2023-04-27T01:20:41.032Z,90669.81
2023-04-27T01:23:25.923Z,90672.00
2023-04-27T01:26:10.912Z,90670.84
2023-04-27T01:28:55.712Z,90669.88
2023-04-27T01:31:40.901Z,90680.88
2023-04-27T01:34:25.599Z,90675.75
2023-04-27T01:37:10.609Z,90682.72
2023-04-27T01:39:55.591Z,90676.03
2023-04-27T01:42:40.455Z,90677.75
2023-04-27T01:45:25.530Z,90682.03
2023-04-27T01:48:10.502Z,90682.28
2023-04-27T01:50:55.519Z,90686.59
2023-04-27T01:53:40.373Z,90684.63
2023-04-27T01:56:25.267Z,90683.66
2023-04-27T01:59:10.296Z,90685.00
2023-04-27T02:01:55.371Z,90679.06
2023-04-27T02:04:40.737Z,90690.34
2023-04-27T02:07:25.504Z,90696.25
2023-04-27T02:10:10.663Z,90697.09
2023-04-27T02:12:55.819Z,90704.56
2023-04-27T02:15:40.804Z,90698.84
2023-04-27T02:18:25.529Z,90706.84
2023-04-27T02:21:10.472Z,90711.31
2023-04-27T02:23:55.505Z,90712.19
2023-04-27T02:26:40.549Z,90704.75
2023-04-27T02:29:25.579Z,90707.72
2023-04-27T02:32:11.035Z,90709.31
2023-04-27T02:34:56.236Z,90707.84
2023-04-27T02:37:41.152Z,90711.09
2023-04-27T02:40:26.263Z,90704.41
2023-04-27T02:43:11.269Z,90707.22
2023-04-27T02:45:56.373Z,90708.69
2023-04-27T02:48:41.457Z,90704.00
2023-04-27T02:51:26.397Z,90706.47
2023-04-27T02:54:11.313Z,90711.03
2023-04-27T02:56:56.276Z,90710.22
2023-04-27T02:59:41.219Z,90718.22
2023-04-27T03:02:26.134Z,90708.28
2023-04-27T03:05:10.948Z,90708.81
2023-04-27T03:07:55.985Z,90713.94
2023-04-27T03:10:40.989Z,90714.22
2023-04-27T03:13:26.102Z,90710.00
2023-04-27T03:16:10.939Z,90717.47
2023-04-27T03:18:55.992Z,90718.28
2023-04-27T03:21:40.858Z,90722.97
2023-04-27T03:24:25.827Z,90724.28
2023-04-27T03:27:10.586Z,90725.28
2023-04-27T03:29:55.668Z,90725.34
2023-04-27T03:32:40.554Z,90723.34
2023-04-27T03:35:25.494Z,90727.63
2023-04-27T03:38:10.535Z,90725.16
2023-04-27T03:40:55.569Z,90725.97
2023-04-27T03:43:40.719Z,90730.94
2023-04-27T03:46:25.558Z,90729.19
2023-04-27T03:49:10.528Z,90726.19
2023-04-27T03:51:55.376Z,90732.19
2023-04-27T03:54:40.420Z,90730.63
2023-04-27T03:57:25.619Z,90741.91
2023-04-27T04:00:10.347Z,90738.69
2023-04-27T04:02:55.477Z,90734.72
2023-04-27T04:05:40.195Z,90734.97
2023-04-27T04:08:25.204Z,90744.66
2023-04-27T04:11:10.288Z,90737.28
2023-04-27T04:13:55.340Z,90737.09
2023-04-27T04:16:40.344Z,90739.13
2023-04-27T04:19:25.378Z,90732.22
2023-04-27T04:22:10.115Z,90737.97
2023-04-27T04:24:54.635Z,90741.22
2023-04-27T04:27:39.676Z,90738.72
2023-04-27T04:30:24.497Z,90735.69
2023-04-27T04:33:09.296Z,90739.47
2023-04-27T04:35:54.133Z,90733.25
2023-04-27T04:38:38.999Z,90743.16
2023-04-27T04:41:23.949Z,90745.16
2023-04-27T04:44:08.717Z,90734.47
2023-04-27T04:46:53.768Z,90744.16
2023-04-27T04:49:38.644Z,90740.94
2023-04-27T04:52:23.315Z,90749.88
2023-04-27T04:55:08.113Z,90749.38
2023-04-27T04:57:53.225Z,90752.91
2023-04-27T05:00:37.995Z,90747.94
2023-04-27T05:03:23.018Z,90752.13
2023-04-27T05:06:07.930Z,90750.19
2023-04-27T05:08:52.914Z,90759.38
2023-04-27T05:11:37.839Z,90754.41
2023-04-27T05:14:22.584Z,90753.41
2023-04-27T05:17:07.649Z,90761.41
2023-04-27T05:19:52.464Z,90754.66
2023-04-27T05:22:37.536Z,90757.22
2023-04-27T05:25:22.336Z,90756.41
2023-04-27T05:28:07.363Z,90759.94
2023-04-27T05:30:52.177Z,90764.41
2023-04-27T05:33:37.049Z,90761.41
2023-04-27T05:36:22.053Z,90766.59
2023-04-27T05:39:07.003Z,90761.09
2023-04-27T05:41:51.962Z,90766.00
2023-04-27T05:44:36.776Z,90759.72
2023-04-27T05:47:21.742Z,90761.25
2023-04-27T05:50:06.700Z,90755.19
2023-04-27T05:52:51.603Z,90763.63
2023-04-27T05:55:36.648Z,90763.16
2023-04-27T05:58:21.712Z,90758.53
2023-04-27T06:01:06.794Z,90769.16
2023-04-27T06:03:51.548Z,90762.47
2023-04-27T06:06:36.419Z,90765.56
2023-04-27T06:09:21.232Z,90762.81
2023-04-27T06:12:06.170Z,90765.59
2023-04-27T06:14:51.070Z,90770.34
2023-04-27T06:17:36.077Z,90764.03
2023-04-27T06:20:20.936Z,90763.22
2023-04-27T06:23:05.773Z,90762.31
2023-04-27T06:25:50.634Z,90764.38
2023-04-27T06:28:35.487Z,90758.63
2023-04-27T06:31:20.512Z,90770.28
2023-04-27T06:34:05.458Z,90768.00
2023-04-27T06:36:50.371Z,90771.59
2023-04-27T06:39:35.391Z,90771.31
2023-04-27T06:42:20.390Z,90770.69
2023-04-27T06:45:05.356Z,90773.59
2023-04-27T06:47:50.429Z,90769.94
2023-04-27T06:50:35.424Z,90768.09
2023-04-27T06:53:20.295Z,90771.53
2023-04-27T06:56:05.187Z,90769.53
2023-04-27T06:58:50.145Z,90778.41
2023-04-27T07:01:35.414Z,90780.59
2023-04-27T07:04:20.164Z,90778.13
2023-04-27T07:07:05.103Z,90768.25
2023-04-27T07:09:50.026Z,90765.06
2023-04-27T07:12:34.769Z,90769.06
2023-04-27T07:15:19.872Z,90767.59
2023-04-27T07:18:06.063Z,90767.06
2023-04-27T07:20:51.082Z,90766.22
2023-04-27T07:23:35.983Z,90765.13
2023-04-27T07:26:20.938Z,90756.88
2023-04-27T07:29:18.792Z,90758.28
2023-04-27T07:32:10.317Z,90750.25
2023-04-27T07:34:55.230Z,90748.09
2023-04-27T07:37:40.265Z,90747.06
2023-04-27T07:40:25.312Z,90744.97
2023-04-27T07:43:10.041Z,90746.72
2023-04-27T07:45:55.152Z,90745.97
2023-04-27T07:48:40.117Z,90737.72
2023-04-27T07:51:25.122Z,90743.00
2023-04-27T07:54:10.220Z,90741.25
2023-04-27T07:56:55.024Z,90745.19
2023-04-27T07:59:40.029Z,90745.56
2023-04-27T08:02:25.212Z,90737.72
2023-04-27T08:05:10.313Z,90733.75
2023-04-27T08:07:55.564Z,90737.44
2023-04-27T08:10:40.500Z,90732.88
2023-04-27T08:13:25.621Z,90730.59
2023-04-27T08:16:10.607Z,90725.19
2023-04-27T08:18:55.627Z,90727.69
2023-04-27T08:21:40.540Z,90725.31
2023-04-27T08:24:25.722Z,90729.66
2023-04-27T08:27:10.870Z,90715.69
2023-04-27T08:29:55.621Z,90717.34
2023-04-27T08:32:40.789Z,90715.59
2023-04-27T08:35:25.491Z,90730.31
2023-04-27T08:38:10.587Z,90723.41
2023-04-27T08:40:55.556Z,90724.19
2023-04-27T08:43:40.690Z,90729.78
2023-04-27T08:46:25.590Z,90725.91
2023-04-27T08:49:10.844Z,90726.03
2023-04-27T08:51:55.543Z,90735.19
2023-04-27T08:54:40.334Z,90724.88
2023-04-27T08:57:25.166Z,90721.16
2023-04-27T09:00:09.987Z,90725.22
2023-04-27T09:02:55.185Z,90706.34
2023-04-27T09:05:46.652Z,90701.72
2023-04-27T09:08:41.295Z,90692.53
2023-04-27T09:11:26.281Z,90704.53
2023-04-27T09:14:11.262Z,90700.09
2023-04-27T09:16:56.113Z,90701.31
2023-04-27T09:19:40.958Z,90698.00
2023-04-27T09:22:25.932Z,90702.59
2023-04-27T09:25:10.898Z,90705.13
2023-04-27T09:27:55.937Z,90691.56
2023-04-27T09:30:40.847Z,90697.25
2023-04-27T09:33:25.945Z,90698.00
2023-04-27T09:36:10.927Z,90692.13
2023-04-27T09:38:55.717Z,90698.75
2023-04-27T09:41:40.844Z,90692.78
2023-04-27T09:44:25.480Z,90694.31
2023-04-27T09:47:10.667Z,90696.91
2023-04-27T09:49:55.570Z,90703.38
2023-04-27T09:52:40.620Z,90708.53
2023-04-27T09:55:25.630Z,90700.97
2023-04-27T09:58:10.375Z,90696.56
2023-04-27T10:00:55.365Z,90693.97
2023-04-27T10:03:40.415Z,90685.66
2023-04-27T10:06:25.351Z,90682.69
2023-04-27T10:09:10.151Z,90675.47
2023-04-27T10:11:55.044Z,90669.41
2023-04-27T10:14:39.993Z,90672.91
2023-04-27T10:17:25.103Z,90664.03
2023-04-27T10:20:09.829Z,90663.44
2023-04-27T10:22:54.701Z,90669.72
2023-04-27T10:25:39.652Z,90667.19
2023-04-27T10:28:24.466Z,90668.25
2023-04-27T10:31:09.642Z,90662.13
2023-04-27T10:33:54.597Z,90664.06
2023-04-27T10:36:39.392Z,90663.91
2023-04-27T10:39:30.058Z,90658.03
2023-04-27T10:42:24.487Z,90661.03
2023-04-27T10:45:09.422Z,90651.66
2023-04-27T10:47:54.515Z,90654.44
2023-04-27T10:50:39.283Z,90665.25
2023-04-27T10:53:25.430Z,90645.63
2023-04-27T10:56:10.498Z,90642.56
2023-04-27T10:58:55.382Z,90640.91
2023-04-27T11:01:40.288Z,90638.16
2023-04-27T11:04:25.219Z,90637.75
2023-04-27T11:07:09.994Z,90632.66
2023-04-27T11:09:54.840Z,90638.34
2023-04-27T11:12:39.699Z,90635.22
2023-04-27T11:15:24.782Z,90638.28
2023-04-27T11:18:09.418Z,90631.97
2023-04-27T11:20:54.343Z,90637.28
2023-04-27T11:23:39.385Z,90628.47
2023-04-27T11:26:24.309Z,90619.66
2023-04-27T11:29:09.142Z,90618.94
2023-04-27T11:31:54.246Z,90614.16
2023-04-27T11:34:39.280Z,90618.59
2023-04-27T11:37:24.304Z,90615.47
2023-04-27T11:40:09.475Z,90609.06
2023-04-27T11:42:54.512Z,90612.63
2023-04-27T11:45:39.579Z,90609.34
2023-04-27T11:48:24.447Z,90609.69
2023-04-27T11:51:09.300Z,90611.13
2023-04-27T11:53:54.294Z,90605.59
2023-04-27T11:56:39.301Z,90615.94
2023-04-27T11:59:24.438Z,90608.41
2023-04-27T12:02:09.297Z,90604.16
2023-04-27T12:04:54.479Z,90600.97
2023-04-27T12:07:39.644Z,90604.88
2023-04-27T12:10:24.696Z,90603.03
2023-04-27T12:13:09.606Z,90599.91
2023-04-27T12:15:54.748Z,90598.91
2023-04-27T12:18:39.726Z,90600.22
2023-04-27T12:21:24.820Z,90599.81
2023-04-27T12:24:09.773Z,90595.56
2023-04-27T12:26:54.759Z,90590.38
2023-04-27T12:29:39.769Z,90594.84
2023-04-27T12:32:24.428Z,90591.13
2023-04-27T12:35:09.517Z,90595.59
2023-04-27T12:37:54.148Z,90592.25
2023-04-27T12:40:39.202Z,90591.91
2023-04-27T12:43:24.172Z,90599.53
2023-04-27T12:46:09.154Z,90590.50
2023-04-27T12:48:54.176Z,90592.00
2023-04-27T12:51:39.039Z,90587.13
2023-04-27T12:54:24.086Z,90583.06
2023-04-27T12:57:09.141Z,90589.38
2023-04-27T12:59:54.175Z,90593.50
2023-04-27T13:02:39.154Z,90593.25
2023-04-27T13:05:23.815Z,90581.47
2023-04-27T13:08:08.662Z,90578.16
2023-04-27T13:10:53.603Z,90571.63
2023-04-27T13:13:38.853Z,90577.88
2023-04-27T13:16:23.975Z,90576.13
2023-04-27T13:19:08.783Z,90565.94
2023-04-27T13:21:53.267Z,90572.00
2023-04-27T13:24:38.222Z,90565.72
2023-04-27T13:27:23.088Z,90568.66
2023-04-27T13:30:07.980Z,90567.19
2023-04-27T13:32:52.884Z,90572.34
2023-04-27T13:35:37.765Z,90571.56
2023-04-27T13:38:22.834Z,90564.19
2023-04-27T13:41:07.785Z,90557.97
2023-04-27T13:43:52.692Z,90556.19
2023-04-27T13:46:37.611Z,90563.59
2023-04-27T13:49:22.435Z,90566.97
2023-04-27T13:52:07.243Z,90557.19
2023-04-27T13:54:52.067Z,90556.50
2023-04-27T13:57:36.854Z,90556.34
2023-04-27T14:00:21.808Z,90561.59
2023-04-27T14:03:07.027Z,90564.53
2023-04-27T14:05:51.774Z,90555.50
2023-04-27T14:08:36.926Z,90565.84
2023-04-27T14:11:21.778Z,90565.28
2023-04-27T14:14:06.755Z,90572.59
2023-04-27T14:16:51.633Z,90563.34
2023-04-27T14:19:36.684Z,90563.72
2023-04-27T14:22:21.814Z,90560.28
2023-04-27T14:25:06.693Z,90555.72
2023-04-27T14:27:51.957Z,90558.38
2023-04-27T14:30:36.861Z,90551.63
2023-04-27T14:33:21.860Z,90559.28
2023-04-27T14:36:06.931Z,90555.13
2023-04-27T14:38:51.779Z,90559.38
2023-04-27T14:41:36.719Z,90555.13
2023-04-27T14:44:21.624Z,90558.97
2023-04-27T14:47:06.712Z,90566.00
2023-04-27T14:49:51.845Z,90562.91
2023-04-27T14:52:37.009Z,90563.69
2023-04-27T14:55:22.027Z,90571.13
2023-04-27T14:58:06.980Z,90567.41
2023-04-27T15:00:51.999Z,90571.22
2023-04-27T15:03:36.986Z,90568.56
2023-04-27T15:06:21.939Z,90573.53
2023-04-27T15:09:06.856Z,90585.22
2023-04-27T15:11:54.058Z,90566.09
2023-04-27T15:14:39.939Z,90569.28
2023-04-27T15:17:24.975Z,90572.16
2023-04-27T15:20:09.838Z,90574.94
2023-04-27T15:22:54.644Z,90573.25
2023-04-27T15:25:39.569Z,90579.19
2023-04-27T15:28:24.506Z,90578.75
2023-04-27T15:31:09.970Z,90575.75
2023-04-27T15:33:55.141Z,90571.94
2023-04-27T15:36:39.883Z,90567.78
2023-04-27T15:39:24.585Z,90576.72
2023-04-27T15:42:09.702Z,90565.75
2023-04-27T15:44:55.074Z,90572.00
2023-04-27T15:47:41.244Z,90570.84
2023-04-27T15:50:26.432Z,90575.25
2023-04-27T15:53:11.071Z,90564.59
2023-04-27T15:55:55.744Z,90565.94
2023-04-27T15:58:40.700Z,90567.25
2023-04-27T16:01:25.945Z,90570.00
2023-04-27T16:04:11.224Z,90565.63
2023-04-27T16:06:56.218Z,90568.28
2023-04-27T16:09:41.334Z,90572.00
2023-04-27T16:12:25.987Z,90569.66
2023-04-27T16:15:11.698Z,90576.50
2023-04-27T16:17:56.498Z,90561.75
2023-04-27T16:20:41.357Z,90555.72
2023-04-27T16:23:26.271Z,90563.03
2023-04-27T16:26:11.097Z,90562.25
2023-04-27T16:28:56.208Z,90571.56
2023-04-27T16:31:41.005Z,90568.63
2023-04-27T16:34:26.479Z,90570.84
2023-04-27T16:37:11.319Z,90575.09
2023-04-27T16:39:56.116Z,90574.06
2023-04-27T16:42:41.013Z,90573.72
2023-04-27T16:45:26.043Z,90575.50
2023-04-27T16:48:10.957Z,90570.16
2023-04-27T16:50:55.928Z,90570.66
2023-04-27T16:53:41.118Z,90568.47
2023-04-27T16:56:25.938Z,90573.78
2023-04-27T16:59:11.217Z,90567.75
2023-04-27T17:01:58.738Z,90564.25
2023-04-27T17:04:48.892Z,90568.25
2023-04-27T17:07:34.032Z,90570.31
2023-04-27T17:10:18.684Z,90569.41
2023-04-27T17:13:03.515Z,90575.09
2023-04-27T17:15:48.548Z,90572.47
2023-04-27T17:18:33.462Z,90574.50
2023-04-27T17:21:18.366Z,90573.88
2023-04-27T17:24:03.371Z,90577.72
2023-04-27T17:26:48.261Z,90583.19
2023-04-27T17:29:33.157Z,90582.28
2023-04-27T17:32:18.231Z,90590.50
2023-04-27T17:35:03.230Z,90590.34
2023-04-27T17:37:48.033Z,90590.09
2023-04-27T17:40:33.237Z,90597.97
2023-04-27T17:43:18.219Z,90596.03
2023-04-27T17:46:03.261Z,90599.94
2023-04-27T17:48:48.185Z,90608.84
2023-04-27T17:51:33.263Z,90598.88
2023-04-27T17:54:18.135Z,90602.38
2023-04-27T17:57:03.149Z,90606.13
2023-04-27T17:59:48.077Z,90611.34
2023-04-27T18:02:32.979Z,90618.59
2023-04-27T18:05:17.910Z,90614.56
2023-04-27T18:08:02.844Z,90615.16
2023-04-27T18:10:47.583Z,90615.19
2023-04-27T18:13:32.467Z,90619.09
2023-04-27T18:16:17.477Z,90618.22
2023-04-27T18:19:02.467Z,90614.59
2023-04-27T18:21:47.250Z,90614.28
2023-04-27T18:24:32.366Z,90623.78
2023-04-27T18:27:17.314Z,90623.06
2023-04-27T18:30:02.393Z,90630.09
2023-04-27T18:32:47.321Z,90629.91
2023-04-27T18:35:32.449Z,90627.75
2023-04-27T18:38:17.300Z,90637.53
2023-04-27T18:41:02.303Z,90643.47
2023-04-27T18:43:47.088Z,90651.25
2023-04-27T18:46:34.491Z,90649.59
2023-04-27T18:49:21.497Z,90643.31
2023-04-27T18:52:06.232Z,90648.47
2023-04-27T18:54:51.268Z,90656.81
2023-04-27T18:57:36.268Z,90663.47
2023-04-27T19:00:20.992Z,90674.56
2023-04-27T19:03:06.294Z,90671.25
2023-04-27T19:05:51.144Z,90676.25
2023-04-27T19:08:36.065Z,90673.66
2023-04-27T19:11:20.901Z,90685.28
2023-04-27T19:14:06.071Z,90685.84
2023-04-27T19:16:50.999Z,90695.44
2023-04-27T19:19:35.901Z,90688.81
2023-04-27T19:22:20.757Z,90681.03
2023-04-27T19:25:05.581Z,90686.59
2023-04-27T19:27:50.552Z,90691.38
2023-04-27T19:30:35.372Z,90695.81
2023-04-27T19:33:20.530Z,90697.84
2023-04-27T19:36:05.028Z,90706.88
2023-04-27T19:38:50.120Z,90713.91
2023-04-27T19:41:34.781Z,90710.75
2023-04-27T19:44:19.656Z,90716.63
2023-04-27T19:47:04.704Z,90718.47
2023-04-27T19:49:49.587Z,90713.69
2023-04-27T19:52:34.530Z,90713.13
2023-04-27T19:55:19.256Z,90708.13
2023-04-27T19:58:04.262Z,90713.13
2023-04-27T20:00:49.082Z,90719.03
2023-04-27T20:03:34.269Z,90720.69
2023-04-27T20:06:19.042Z,90727.91
2023-04-27T20:09:04.053Z,90721.44
2023-04-27T20:11:48.902Z,90730.22
2023-04-27T20:14:33.810Z,90730.22
2023-04-27T20:17:18.688Z,90729.31
2023-04-27T20:20:03.499Z,90735.19
2023-04-27T20:22:48.409Z,90736.47
2023-04-27T20:25:33.227Z,90740.50
2023-04-27T20:28:20.233Z,90742.13
2023-04-27T20:31:05.203Z,90742.88
2023-04-27T20:33:49.967Z,90740.09
2023-04-27T20:36:34.951Z,90744.00
2023-04-27T20:39:19.780Z,90733.88
2023-04-27T20:42:04.821Z,90733.16
2023-04-27T20:44:49.614Z,90737.19
2023-04-27T20:47:34.496Z,90734.03
2023-04-27T20:50:19.445Z,90729.78
2023-04-27T20:53:04.269Z,90739.41
2023-04-27T20:55:49.226Z,90730.19
2023-04-27T20:58:34.201Z,90730.56
2023-04-27T21:01:19.272Z,90731.47
2023-04-27T21:04:04.245Z,90743.81
2023-04-27T21:06:49.387Z,90737.41
2023-04-27T21:09:34.384Z,90736.31
2023-04-27T21:12:19.413Z,90750.50
2023-04-27T21:15:04.249Z,90744.00
2023-04-27T21:17:49.307Z,90749.16
2023-04-27T21:20:34.364Z,90748.03
2023-04-27T21:23:19.316Z,90750.41
2023-04-27T21:26:04.323Z,90748.00
2023-04-27T21:28:49.188Z,90749.84
2023-04-27T21:31:34.140Z,90754.44
2023-04-27T21:34:21.121Z,90754.44
2023-04-27T21:37:06.014Z,90747.63
2023-04-27T21:39:50.954Z,90752.63
2023-04-27T21:42:36.065Z,90750.75
2023-04-27T21:45:20.977Z,90746.69
2023-04-27T21:48:06.048Z,90743.38
2023-04-27T21:50:50.719Z,90741.72
2023-04-27T21:53:35.623Z,90733.22
2023-04-27T21:56:20.643Z,90746.84
2023-04-27T21:59:05.621Z,90740.41
2023-04-27T22:01:50.731Z,90738.31
2023-04-27T22:04:35.826Z,90737.56
2023-04-27T22:07:20.894Z,90737.75
2023-04-27T22:10:05.715Z,90749.56
2023-04-27T22:12:50.572Z,90758.78
2023-04-27T22:15:35.467Z,90752.53
2023-04-27T22:18:20.450Z,90750.91
2023-04-27T22:21:05.525Z,90747.34
2023-04-27T22:23:50.280Z,90749.41
2023-04-27T22:26:35.270Z,90746.25
2023-04-27T22:29:20.539Z,90747.91
2023-04-27T22:32:05.566Z,90744.78
2023-04-27T22:34:50.485Z,90741.63
2023-04-27T22:37:35.220Z,90744.22
2023-04-27T22:40:20.201Z,90740.19
2023-04-27T22:43:05.034Z,90742.06
2023-04-27T22:45:49.940Z,90739.69
2023-04-27T22:48:34.853Z,90747.94
2023-04-27T22:51:19.780Z,90745.38
2023-04-27T22:54:04.762Z,90737.81
2023-04-27T22:56:49.560Z,90733.91
2023-04-27T22:59:34.468Z,90728.28
2023-04-27T23:02:19.441Z,90733.50
2023-04-27T23:05:04.128Z,90746.41
2023-04-27T23:07:49.025Z,90744.88
2023-04-27T23:10:33.965Z,90743.25
2023-04-27T23:13:18.924Z,90745.13
2023-04-27T23:16:03.780Z,90741.44
2023-04-27T23:18:48.894Z,90740.19
2023-04-27T23:21:33.787Z,90741.66
2023-04-27T23:24:18.892Z,90734.81
2023-04-27T23:27:03.838Z,90734.97
2023-04-27T23:29:48.840Z,90736.66
2023-04-27T23:32:33.790Z,90741.63
2023-04-27T23:35:18.628Z,90741.03
2023-04-27T23:38:03.629Z,90736.72
2023-04-27T23:40:48.544Z,90734.69
2023-04-27T23:43:33.557Z,90739.78
2023-04-27T23:46:18.504Z,90737.13
2023-04-27T23:49:03.446Z,90746.53
2023-04-27T23:51:48.253Z,90755.06
2023-04-27T23:54:33.256Z,90744.66
2023-04-27T23:57:18.207Z,90751.78
